Time;durP1;ratioP1;P1;durP2;ratioP2;P2;SDS_P1;SDS_P2;PMS_P1;PMS_P2;Temp;Humidity;BMP_temperature;BMP_pressure;BME280_temperature;BME280_humidity;BME280_pressure;Samples;Min_cycle;Max_cycle;Signal;HPM_P1;HPM_P2
2024/01/29 00:00:39;;;;;;;149.10;79.30;;;;;;;-1.41;85.85;100795.42;226348;1274;22680;-77
2024/01/29 00:05:41;;;;;;;155.20;87.00;;;;;;;-1.46;85.85;100778.50;226298;1274;22539;-77
2024/01/29 00:10:46;;;;;;;158.20;84.40;;;;;;;-1.49;85.92;100761.38;226651;1274;22555;-78
2024/01/29 00:15:48;;;;;;;160.20;86.00;;;;;;;-1.52;86.16;100749.05;226445;1274;22923;-77
2024/01/29 00:20:51;;;;;;;149.40;82.00;;;;;;;-1.54;86.22;100748.44;226383;1274;22879;-77
2024/01/29 00:25:54;;;;;;;169.00;91.70;;;;;;;-1.57;86.14;100747.89;226193;1274;22694;-77
2024/01/29 00:30:56;;;;;;;174.00;95.00;;;;;;;-1.59;86.06;100749.00;226410;1274;22574;-77
2024/01/29 00:35:58;;;;;;;172.50;94.40;;;;;;;-1.60;86.31;100764.25;226281;1270;22735;-78
2024/01/29 00:41:00;;;;;;;166.10;91.80;;;;;;;-1.61;86.46;100762.73;226462;1274;24968;-76
2024/01/29 00:46:02;;;;;;;155.60;89.70;;;;;;;-1.63;86.53;100756.95;226479;1273;22654;-77
2024/01/29 00:51:04;;;;;;;158.50;89.60;;;;;;;-1.67;86.55;100752.09;226411;1272;25444;-77
2024/01/29 00:56:06;;;;;;;169.20;99.00;;;;;;;-1.73;86.47;100757.02;226310;1274;22572;-76
2024/01/29 01:01:09;;;;;;;178.90;101.60;;;;;;;-1.79;86.43;100759.10;226244;1274;22921;-76
2024/01/29 01:06:11;;;;;;;173.70;94.20;;;;;;;-1.82;86.31;100746.12;226707;1274;22755;-76
2024/01/29 01:11:13;;;;;;;159.10;85.00;;;;;;;-1.85;86.25;100743.64;226300;1274;25146;-76
2024/01/29 01:16:15;;;;;;;163.00;85.60;;;;;;;-1.85;86.53;100746.61;226486;1271;22540;-76
2024/01/29 01:21:17;;;;;;;162.20;88.70;;;;;;;-1.86;86.46;100747.16;226242;1271;22571;-76
2024/01/29 01:26:19;;;;;;;183.30;99.30;;;;;;;-1.87;86.80;100754.11;226276;1274;23220;-78
2024/01/29 01:31:21;;;;;;;185.20;101.50;;;;;;;-1.90;86.34;100753.70;226256;1271;22677;-75
2024/01/29 01:36:23;;;;;;;203.40;111.90;;;;;;;-1.94;86.53;100758.36;226288;1273;22609;-75
2024/01/29 01:41:25;;;;;;;168.50;93.20;;;;;;;-1.97;86.47;100771.45;226269;1267;22587;-74
2024/01/29 01:46:28;;;;;;;143.50;79.50;;;;;;;-1.98;86.93;100769.56;226580;1271;22672;-75
2024/01/29 01:51:30;;;;;;;145.30;76.30;;;;;;;-1.98;86.43;100761.27;226453;1273;23633;-75
2024/01/29 01:56:33;;;;;;;151.10;81.40;;;;;;;-2.00;86.39;100754.29;226351;1274;22589;-75
2024/01/29 02:01:35;;;;;;;147.40;77.80;;;;;;;-2.04;86.78;100753.20;226498;1273;22597;-75
2024/01/29 02:06:37;;;;;;;130.90;69.90;;;;;;;-2.03;86.56;100755.92;226486;1268;22580;-75
2024/01/29 02:11:39;;;;;;;118.30;65.60;;;;;;;-2.04;86.85;100751.50;226535;1269;22715;-75
2024/01/29 02:16:41;;;;;;;129.90;68.40;;;;;;;-2.03;86.67;100749.73;226399;1273;23124;-75
2024/01/29 02:21:44;;;;;;;136.20;77.60;;;;;;;-2.05;87.04;100753.64;226454;1268;22527;-75
2024/01/29 02:26:47;;;;;;;158.50;87.50;;;;;;;-2.08;86.86;100753.93;226434;1273;22563;-75
2024/01/29 02:31:49;;;;;;;133.20;77.30;;;;;;;-2.08;87.24;100746.50;226518;1271;22706;-74
2024/01/29 02:36:51;;;;;;;143.10;80.40;;;;;;;-2.10;87.14;100749.15;226404;1272;22650;-73
2024/01/29 02:41:53;;;;;;;142.50;80.10;;;;;;;-2.13;86.91;100747.04;226443;1273;25510;-74
2024/01/29 02:46:57;;;;;;;134.00;76.50;;;;;;;-2.18;87.13;100747.36;226224;1268;22616;-75
2024/01/29 02:52:00;;;;;;;124.50;70.40;;;;;;;-2.21;87.05;100739.73;226597;1274;24267;-76
2024/01/29 02:57:04;;;;;;;112.60;61.80;;;;;;;-2.23;86.96;100729.98;226240;1274;22599;-76
2024/01/29 03:02:07;;;;;;;97.70;53.50;;;;;;;-2.23;87.13;100714.97;226474;1274;22581;-74
2024/01/29 03:07:09;;;;;;;95.10;54.30;;;;;;;-2.22;87.63;100706.78;226488;1273;23115;-73
2024/01/29 03:12:11;;;;;;;89.70;50.70;;;;;;;-2.21;87.54;100699.67;226434;1271;22583;-74
2024/01/29 03:17:13;;;;;;;85.60;49.40;;;;;;;-2.22;87.49;100699.73;226433;1274;22630;-75
2024/01/29 03:22:15;;;;;;;90.10;48.00;;;;;;;-2.23;87.34;100697.38;226526;1266;22748;-75
2024/01/29 03:27:17;;;;;;;90.40;48.80;;;;;;;-2.22;87.52;100699.55;226286;1274;24331;-75
2024/01/29 03:32:19;;;;;;;98.00;54.10;;;;;;;-2.17;87.67;100685.90;226421;1274;22674;-76
2024/01/29 03:37:21;;;;;;;99.20;57.10;;;;;;;-2.09;87.99;100684.05;226499;1274;22588;-76
2024/01/29 03:42:23;;;;;;;88.60;49.70;;;;;;;-2.09;87.46;100687.67;226451;1273;22672;-75
2024/01/29 03:47:25;;;;;;;77.90;43.20;;;;;;;-2.08;87.44;100687.81;226406;1253;25626;-73
2024/01/29 03:52:27;;;;;;;106.70;54.60;;;;;;;-2.08;87.60;100703.31;226474;1274;22712;-74
2024/01/29 03:57:29;;;;;;;116.40;53.80;;;;;;;-2.07;87.54;100709.33;226445;1271;22606;-75
2024/01/29 04:02:31;;;;;;;103.10;51.00;;;;;;;-2.14;87.14;100707.20;226443;1274;26258;-74
2024/01/29 04:07:33;;;;;;;83.80;46.60;;;;;;;-2.22;86.94;100710.98;226443;1274;22539;-76
2024/01/29 04:12:35;;;;;;;90.60;49.30;;;;;;;-2.25;87.22;100715.73;226489;1273;22718;-77
2024/01/29 04:17:37;;;;;;;90.30;49.10;;;;;;;-2.25;87.57;100719.20;226497;1271;22747;-74
2024/01/29 04:22:40;;;;;;;88.20;47.10;;;;;;;-2.24;87.35;100710.52;226448;1274;23061;-73
2024/01/29 04:27:42;;;;;;;92.70;51.00;;;;;;;-2.22;87.85;100710.60;226248;1268;22591;-76
2024/01/29 04:32:44;;;;;;;90.70;54.10;;;;;;;-2.21;87.99;100710.39;226401;1274;24258;-73
2024/01/29 04:37:46;;;;;;;101.40;57.20;;;;;;;-2.19;87.78;100708.41;226468;1271;23165;-74
2024/01/29 04:42:47;;;;;;;82.40;47.70;;;;;;;-2.17;87.83;100720.75;226385;1272;22591;-74
2024/01/29 04:47:50;;;;;;;87.30;50.80;;;;;;;-2.12;87.66;100718.34;226368;1274;22590;-75
2024/01/29 04:52:52;;;;;;;96.10;51.90;;;;;;;-2.09;88.04;100711.98;226401;1272;23174;-75
2024/01/29 04:57:54;;;;;;;100.70;56.90;;;;;;;-2.05;88.04;100701.31;226192;1274;22635;-74
2024/01/29 05:02:56;;;;;;;94.40;54.00;;;;;;;-2.07;87.99;100694.83;226418;1271;22608;-74
2024/01/29 05:07:58;;;;;;;90.10;49.90;;;;;;;-2.09;87.97;100691.83;226447;1274;22596;-74
2024/01/29 05:13:00;;;;;;;79.00;45.40;;;;;;;-2.07;87.75;100696.02;226391;1274;26762;-75
2024/01/29 05:18:03;;;;;;;77.80;46.10;;;;;;;-2.04;87.98;100708.35;226374;1274;22555;-74
2024/01/29 05:23:05;;;;;;;89.40;51.20;;;;;;;-2.11;87.66;100712.77;226388;1272;26272;-74
2024/01/29 05:28:07;;;;;;;84.00;49.10;;;;;;;-2.20;87.49;100716.41;226376;1266;23148;-76
2024/01/29 05:33:09;;;;;;;81.10;46.20;;;;;;;-2.29;87.26;100714.84;226242;1274;23325;-74
2024/01/29 05:38:27;;;;;;;73.70;42.40;;;;;;;-2.37;87.78;100719.48;226381;1274;24260;-73
2024/01/29 05:43:29;;;;;;;74.80;42.60;;;;;;;-2.47;87.66;100720.02;226462;1272;22609;-75
2024/01/29 05:48:31;;;;;;;93.30;53.10;;;;;;;-2.57;87.69;100714.72;226437;1273;22673;-74
2024/01/29 05:53:33;;;;;;;88.10;48.90;;;;;;;-2.63;87.69;100709.60;226401;1273;23128;-74
2024/01/29 05:58:36;;;;;;;103.00;58.40;;;;;;;-2.66;87.38;100710.22;226390;1272;22608;-74
2024/01/29 06:03:38;;;;;;;109.00;60.20;;;;;;;-2.66;88.21;100711.95;226550;1272;22586;-74
2024/01/29 06:08:40;;;;;;;119.90;64.90;;;;;;;-2.68;87.70;100716.84;226378;1274;24166;-73
2024/01/29 06:13:42;;;;;;;116.60;63.90;;;;;;;-2.68;87.97;100713.44;226506;1274;23076;-75
2024/01/29 06:18:44;;;;;;;110.10;62.90;;;;;;;-2.70;88.01;100717.80;226431;1273;22609;-74
2024/01/29 06:23:46;;;;;;;112.00;61.30;;;;;;;-2.72;87.86;100712.16;226493;1271;22683;-74
2024/01/29 06:28:48;;;;;;;116.20;64.40;;;;;;;-2.71;87.80;100720.59;226440;1273;25579;-73
2024/01/29 06:33:53;;;;;;;123.30;65.40;;;;;;;-2.71;88.11;100721.45;226476;1274;23110;-74
2024/01/29 06:38:59;;;;;;;116.30;61.60;;;;;;;-2.70;87.92;100719.86;226205;1274;23519;-73
2024/01/29 06:44:01;;;;;;;107.90;59.80;;;;;;;-2.65;88.38;100720.88;226420;1269;22602;-74
2024/01/29 06:49:03;;;;;;;102.00;57.30;;;;;;;-2.55;88.65;100725.17;226355;1257;25499;-74
2024/01/29 06:54:05;;;;;;;113.10;64.70;;;;;;;-2.44;88.69;100710.61;226425;1274;22565;-73
2024/01/29 06:59:07;;;;;;;105.60;60.10;;;;;;;-2.36;88.47;100705.10;226182;1267;22633;-73
2024/01/29 07:04:09;;;;;;;107.70;62.30;;;;;;;-2.25;88.51;100703.64;226132;1266;22636;-79
2024/01/29 07:09:11;;;;;;;98.80;59.20;;;;;;;-2.13;88.71;100714.04;226152;1266;22612;-73
2024/01/29 07:14:13;;;;;;;96.70;55.90;;;;;;;-1.99;88.70;100721.27;226172;1258;22596;-74
2024/01/29 07:19:21;;;;;;;101.10;59.10;;;;;;;-1.81;88.91;100713.82;226332;1256;22557;-74
2024/01/29 07:24:23;;;;;;;93.90;54.60;;;;;;;-1.67;88.84;100719.81;226262;1256;22547;-72
2024/01/29 07:29:31;;;;;;;86.70;50.90;;;;;;;-1.53;88.78;100718.48;226408;1262;22568;-72
2024/01/29 07:34:34;;;;;;;89.10;53.80;;;;;;;-1.35;88.94;100718.96;226398;1266;24336;-73
2024/01/29 07:39:36;;;;;;;85.10;52.50;;;;;;;-0.91;89.50;100711.50;226801;1268;22542;-78
2024/01/29 07:44:38;;;;;;;80.60;48.60;;;;;;;-0.60;89.09;100710.11;226115;1271;22526;-73
2024/01/29 07:49:40;;;;;;;73.60;43.10;;;;;;;-0.52;88.52;100703.16;226563;1272;22552;-75
2024/01/29 07:54:42;;;;;;;70.10;41.30;;;;;;;-0.44;88.32;100697.45;226377;1274;23034;-73
2024/01/29 07:59:48;;;;;;;70.80;41.90;;;;;;;-0.35;88.26;100695.28;226460;1274;22683;-74
2024/01/29 08:04:49;;;;;;;75.90;42.80;;;;;;;-0.25;88.50;100698.59;226487;1272;22667;-73
2024/01/29 08:09:52;;;;;;;62.10;39.00;;;;;;;-0.07;88.67;100701.38;226472;1272;22647;-75
2024/01/29 08:14:54;;;;;;;55.00;33.80;;;;;;;0.96;90.76;100691.85;226491;1274;22551;-74
2024/01/29 08:19:56;;;;;;;54.10;32.80;;;;;;;1.17;88.50;100688.87;226425;1275;22571;-75
2024/01/29 08:24:59;;;;;;;50.50;31.30;;;;;;;1.13;87.70;100692.33;226387;1271;22543;-75
2024/01/29 08:30:01;;;;;;;53.70;31.30;;;;;;;1.13;87.71;100694.13;226599;1264;22543;-75
2024/01/29 08:35:04;;;;;;;45.20;30.30;;;;;;;1.13;87.62;100695.66;226457;1274;25427;-74
2024/01/29 08:40:06;;;;;;;47.30;30.10;;;;;;;1.17;87.66;100697.52;226485;1274;22557;-76
2024/01/29 08:45:13;;;;;;;48.40;30.20;;;;;;;1.24;87.83;100694.86;226244;1274;269830;-74
2024/01/29 08:50:15;;;;;;;46.80;28.70;;;;;;;1.35;87.61;100698.66;226420;1273;22608;-80
2024/01/29 08:55:17;;;;;;;44.00;27.00;;;;;;;1.48;87.70;100696.91;226297;1269;22547;-79
2024/01/29 09:00:19;;;;;;;41.30;25.40;;;;;;;1.63;87.64;100702.34;226234;1256;22539;-75
2024/01/29 09:05:21;;;;;;;38.70;22.20;;;;;;;1.83;87.60;100704.52;226335;1273;22566;-75
2024/01/29 09:10:23;;;;;;;32.20;18.20;;;;;;;2.06;87.27;100705.28;226384;1269;22665;-79
2024/01/29 09:15:27;;;;;;;24.60;14.60;;;;;;;2.25;86.95;100704.38;226508;1273;22547;-82
2024/01/29 09:20:29;;;;;;;18.10;10.90;;;;;;;2.61;87.09;100702.96;226249;1274;22574;-80
2024/01/29 09:25:31;;;;;;;15.20;10.40;;;;;;;2.95;86.37;100701.10;226281;1273;24250;-78
2024/01/29 09:30:33;;;;;;;14.70;9.00;;;;;;;3.13;85.89;100701.92;226249;1274;24309;-78
2024/01/29 09:35:35;;;;;;;16.80;8.70;;;;;;;3.29;85.25;100704.94;226461;1275;22557;-78
2024/01/29 09:40:39;;;;;;;15.60;9.10;;;;;;;3.45;84.77;100700.81;226357;1273;23032;-79
2024/01/29 09:45:41;;;;;;;15.40;8.70;;;;;;;3.63;84.64;100699.53;226246;1274;22547;-78
2024/01/29 09:50:45;;;;;;;12.70;8.60;;;;;;;3.80;84.21;100695.09;226281;1274;22543;-79
2024/01/29 09:55:47;;;;;;;13.60;9.30;;;;;;;3.97;83.54;100691.04;226315;1261;23018;-79
2024/01/29 10:00:51;;;;;;;12.50;8.10;;;;;;;4.15;82.86;100687.25;226147;1267;22582;-78
2024/01/29 10:05:54;;;;;;;12.00;7.60;;;;;;;4.34;82.93;100688.27;226184;1263;24442;-78
2024/01/29 10:10:56;;;;;;;11.10;7.50;;;;;;;4.54;82.06;100681.34;226353;1273;22539;-78
2024/01/29 10:15:59;;;;;;;12.00;7.60;;;;;;;4.73;81.43;100676.73;226360;1264;22556;-80
2024/01/29 10:21:04;;;;;;;12.10;7.30;;;;;;;4.88;80.36;100675.73;226225;1253;22541;-79
2024/01/29 10:26:14;;;;;;;9.80;6.60;;;;;;;4.99;79.27;100671.13;226235;1273;24235;-79
2024/01/29 10:31:16;;;;;;;10.10;6.90;;;;;;;5.10;79.32;100665.64;226397;1268;22531;-78
2024/01/29 10:36:19;;;;;;;11.60;7.10;;;;;;;5.19;78.64;100662.52;226157;1273;23332;-79
2024/01/29 10:41:23;;;;;;;10.70;7.30;;;;;;;5.30;78.37;100663.89;226231;1274;22705;-79
2024/01/29 10:46:26;;;;;;;10.40;6.60;;;;;;;5.41;78.13;100658.73;226108;1273;24282;-80
2024/01/29 10:51:31;;;;;;;11.00;6.90;;;;;;;5.54;77.95;100658.98;226489;1272;22543;-79
2024/01/29 10:56:35;;;;;;;8.30;5.90;;;;;;;5.71;77.72;100657.44;226290;1270;23147;-80
2024/01/29 11:01:37;;;;;;;10.40;6.10;;;;;;;5.84;77.27;100659.27;226487;1274;22553;-79
2024/01/29 11:06:52;;;;;;;13.60;8.10;;;;;;;5.94;76.66;100655.58;226522;1270;22634;-80
2024/01/29 11:11:56;;;;;;;12.40;7.60;;;;;;;6.08;77.38;100658.24;226480;1267;22558;-82
2024/01/29 11:16:58;;;;;;;12.60;7.40;;;;;;;6.20;76.50;100657.51;226332;1267;22532;-80
2024/01/29 11:22:00;;;;;;;11.80;7.90;;;;;;;6.32;76.44;100652.95;226256;1259;25590;-81
2024/01/29 11:27:07;;;;;;;12.40;7.60;;;;;;;6.43;76.39;100653.00;226117;1274;22684;-82
2024/01/29 11:32:15;;;;;;;10.70;7.20;;;;;;;6.54;76.54;100660.55;226337;1274;22548;-81
2024/01/29 11:37:29;;;;;;;13.10;6.40;;;;;;;6.67;75.84;100656.36;226272;1273;22558;-80
2024/01/29 11:42:32;;;;;;;10.50;6.70;;;;;;;6.77;74.99;100644.95;226289;1272;22646;-81
2024/01/29 11:47:34;;;;;;;12.30;7.90;;;;;;;6.83;74.33;100640.98;226202;1260;25387;-82
2024/01/29 11:52:36;;;;;;;11.60;6.70;;;;;;;6.90;74.29;100642.54;225959;1266;22552;-82
2024/01/29 11:57:43;;;;;;;8.10;5.40;;;;;;;7.01;74.22;100635.56;226102;1267;22594;-80
2024/01/29 12:02:50;;;;;;;8.70;5.30;;;;;;;7.06;72.87;100631.61;226000;1274;25312;-82
2024/01/29 12:07:52;;;;;;;10.40;5.80;;;;;;;7.11;72.42;100627.79;226109;1251;22559;-81
2024/01/29 12:12:54;;;;;;;8.70;5.40;;;;;;;7.17;72.42;100627.29;226295;1267;25323;-80
2024/01/29 12:17:57;;;;;;;7.50;5.80;;;;;;;7.21;71.75;100625.96;226343;1269;25108;-81
2024/01/29 12:22:59;;;;;;;12.50;7.60;;;;;;;7.21;72.15;100625.60;226337;1267;22562;-81
2024/01/29 12:28:05;;;;;;;11.10;6.60;;;;;;;7.25;72.42;100626.79;226244;1251;23006;-81
2024/01/29 12:33:08;;;;;;;8.60;6.20;;;;;;;7.31;72.24;100632.63;226266;1270;22593;-81
2024/01/29 12:38:13;;;;;;;13.30;7.30;;;;;;;7.35;71.57;100628.09;226325;1263;23144;-80
2024/01/29 12:43:16;;;;;;;12.20;7.60;;;;;;;7.44;72.43;100625.86;226469;1251;22558;-80
2024/01/29 12:48:21;;;;;;;11.70;7.40;;;;;;;7.49;72.06;100627.73;226525;1267;22551;-80
2024/01/29 12:53:23;;;;;;;10.60;6.50;;;;;;;7.53;72.09;100624.73;226447;1272;22551;-81
2024/01/29 12:58:25;;;;;;;8.70;6.20;;;;;;;7.57;71.83;100623.20;226157;1260;22550;-81
2024/01/29 13:03:27;;;;;;;10.80;6.10;;;;;;;7.57;71.45;100626.01;226432;1270;22620;-82
2024/01/29 13:08:31;;;;;;;11.10;7.30;;;;;;;7.55;71.79;100627.23;226321;1267;23614;-78
2024/01/29 13:13:34;;;;;;;10.50;6.70;;;;;;;7.54;71.72;100628.23;226279;1255;25323;-77
2024/01/29 13:18:36;;;;;;;10.40;6.80;;;;;;;7.53;71.41;100622.71;226318;1270;22540;-79
2024/01/29 13:23:38;;;;;;;9.00;6.40;;;;;;;7.53;71.39;100618.33;226299;1273;22643;-79
2024/01/29 13:28:41;;;;;;;10.50;6.40;;;;;;;7.53;72.03;100620.39;226230;1255;22602;-79
2024/01/29 13:33:43;;;;;;;10.00;6.90;;;;;;;7.53;71.28;100616.54;226315;1270;25376;-79
2024/01/29 13:38:45;;;;;;;9.90;6.50;;;;;;;7.51;70.90;100613.89;226356;1256;22552;-78
2024/01/29 13:43:47;;;;;;;12.10;7.60;;;;;;;7.48;70.76;100609.44;226321;1267;22558;-79
2024/01/29 13:48:49;;;;;;;10.00;6.60;;;;;;;7.43;70.98;100606.13;225927;1267;22569;-79
2024/01/29 13:53:51;;;;;;;11.60;7.00;;;;;;;7.39;70.89;100607.69;226018;1273;22555;-81
2024/01/29 13:58:53;;;;;;;9.80;7.00;;;;;;;7.34;70.82;100607.16;226339;1267;22562;-79
2024/01/29 14:03:56;;;;;;;9.40;6.70;;;;;;;7.31;71.16;100606.55;226441;1270;24250;-79
2024/01/29 14:08:59;;;;;;;11.30;7.40;;;;;;;7.25;70.74;100607.72;226367;1254;22546;-78
2024/01/29 14:14:01;;;;;;;10.70;6.20;;;;;;;7.17;70.58;100611.88;226299;1270;22587;-79
2024/01/29 14:19:04;;;;;;;8.80;5.90;;;;;;;7.09;70.90;100613.80;226195;1273;22568;-80
2024/01/29 14:24:06;;;;;;;11.60;6.90;;;;;;;6.99;70.21;100604.20;226302;1274;22643;-78
2024/01/29 14:29:08;;;;;;;13.40;6.80;;;;;;;6.88;70.18;100603.31;226213;1270;22547;-80
2024/01/29 14:34:11;;;;;;;11.80;6.60;;;;;;;6.77;70.50;100602.94;226372;1274;22603;-82
2024/01/29 14:39:15;;;;;;;10.80;6.90;;;;;;;6.66;70.74;100607.46;226263;1271;22601;-82
2024/01/29 14:44:18;;;;;;;12.40;7.10;;;;;;;6.54;70.79;100611.67;226176;1259;22585;-80
2024/01/29 14:49:22;;;;;;;10.60;7.60;;;;;;;6.42;71.36;100609.13;226115;1267;22602;-81
2024/01/29 14:54:24;;;;;;;13.50;8.80;;;;;;;6.28;71.29;100615.30;226389;1266;22969;-80
2024/01/29 14:59:27;;;;;;;13.60;8.80;;;;;;;6.14;72.01;100615.65;225839;1266;22542;-81
2024/01/29 15:04:31;;;;;;;12.40;8.40;;;;;;;5.99;71.64;100609.55;225685;1274;22610;-80
2024/01/29 15:09:34;;;;;;;13.40;9.10;;;;;;;5.84;71.84;100609.61;225827;1274;22591;-79
2024/01/29 15:14:36;;;;;;;15.20;9.90;;;;;;;5.68;72.01;100606.95;226101;1269;23196;-80
2024/01/29 15:19:38;;;;;;;16.10;10.90;;;;;;;5.51;72.25;100603.00;226017;1273;22536;-80
2024/01/29 15:24:41;;;;;;;17.30;11.40;;;;;;;5.34;72.47;100597.52;226155;1268;22558;-80
2024/01/29 15:29:44;;;;;;;17.90;10.60;;;;;;;5.17;73.02;100595.79;226310;1256;22631;-79
2024/01/29 15:34:49;;;;;;;17.00;11.00;;;;;;;4.99;73.11;100588.55;226267;1268;22638;-80
2024/01/29 15:39:52;;;;;;;17.50;11.20;;;;;;;4.80;73.53;100587.23;226473;1256;23221;-80
2024/01/29 15:44:54;;;;;;;20.30;13.60;;;;;;;4.61;73.66;100584.38;226481;1274;22658;-79
2024/01/29 15:49:57;;;;;;;21.80;14.70;;;;;;;4.40;74.19;100585.80;226296;1274;24372;-80
2024/01/29 15:55:03;;;;;;;22.50;14.10;;;;;;;4.20;74.56;100587.86;226358;1274;22547;-80
2024/01/29 16:00:09;;;;;;;24.30;15.10;;;;;;;4.03;74.83;100593.91;226495;1274;22761;-78
2024/01/29 16:05:12;;;;;;;22.70;15.00;;;;;;;3.84;74.89;100599.15;226475;1272;22653;-80
2024/01/29 16:10:14;;;;;;;24.30;15.00;;;;;;;3.67;75.32;100601.69;226706;1270;25463;-80
2024/01/29 16:15:17;;;;;;;25.10;15.50;;;;;;;3.51;75.47;100605.30;226356;1274;22550;-80
2024/01/29 16:20:20;;;;;;;27.10;16.90;;;;;;;3.37;75.81;100604.31;226360;1271;22543;-80
2024/01/29 16:25:22;;;;;;;27.50;16.70;;;;;;;3.25;76.07;100603.00;226494;1270;22551;-80
2024/01/29 16:30:24;;;;;;;24.80;15.30;;;;;;;3.17;76.36;100604.89;226566;1270;22810;-80
2024/01/29 16:35:26;;;;;;;28.10;15.30;;;;;;;3.11;76.54;100608.92;226341;1271;23041;-79
2024/01/29 16:40:28;;;;;;;21.50;15.00;;;;;;;3.06;76.95;100613.27;226290;1273;22637;-80
2024/01/29 16:45:30;;;;;;;22.40;13.80;;;;;;;2.98;77.05;100620.84;226295;1270;25396;-79
2024/01/29 16:50:33;;;;;;;21.10;12.20;;;;;;;2.96;77.31;100622.94;226333;1269;22556;-80
2024/01/29 16:55:35;;;;;;;24.30;13.10;;;;;;;2.99;77.44;100625.31;226668;1273;22501;-80
2024/01/29 17:00:38;;;;;;;22.90;13.10;;;;;;;2.97;77.51;100631.02;226315;1274;23163;-80
2024/01/29 17:05:41;;;;;;;23.70;14.50;;;;;;;2.93;77.54;100633.88;226337;1268;24209;-78
2024/01/29 17:10:43;;;;;;;25.20;16.10;;;;;;;2.89;77.60;100635.03;226307;1271;22530;-79
2024/01/29 17:15:45;;;;;;;25.00;14.50;;;;;;;2.86;77.88;100635.02;226240;1274;22543;-80
2024/01/29 17:20:47;;;;;;;22.90;14.20;;;;;;;2.81;77.89;100635.66;226475;1271;22562;-80
2024/01/29 17:25:53;;;;;;;25.60;15.30;;;;;;;2.74;77.85;100636.79;226319;1274;22536;-80
2024/01/29 17:30:58;;;;;;;32.10;17.00;;;;;;;2.70;78.20;100633.73;226396;1274;25361;-80
2024/01/29 17:36:00;;;;;;;33.60;20.00;;;;;;;2.67;78.35;100636.88;226237;1274;25549;-80
2024/01/29 17:41:02;;;;;;;34.80;21.90;;;;;;;2.59;78.34;100635.77;226347;1271;22565;-79
2024/01/29 17:46:04;;;;;;;40.80;24.50;;;;;;;2.51;78.35;100632.80;226389;1274;22552;-80
2024/01/29 17:51:07;;;;;;;40.10;23.60;;;;;;;2.41;78.58;100637.20;226308;1271;22550;-81
2024/01/29 17:56:10;;;;;;;48.70;25.50;;;;;;;2.32;78.69;100634.61;226404;1271;22537;-80
2024/01/29 18:01:12;;;;;;;40.60;23.40;;;;;;;2.24;78.70;100634.39;226381;1274;22588;-79
2024/01/29 18:06:14;;;;;;;40.20;24.10;;;;;;;2.17;78.87;100642.11;226359;1274;22550;-80
2024/01/29 18:11:17;;;;;;;43.60;25.90;;;;;;;2.09;79.05;100644.27;226355;1274;22575;-80
2024/01/29 18:16:19;;;;;;;46.40;26.50;;;;;;;2.03;79.04;100641.34;226247;1273;22540;-80
2024/01/29 18:21:21;;;;;;;49.60;27.10;;;;;;;1.96;79.26;100638.11;226434;1268;22664;-80
2024/01/29 18:26:24;;;;;;;49.30;28.00;;;;;;;1.88;79.36;100638.24;226327;1274;22661;-80
2024/01/29 18:31:26;;;;;;;47.50;27.00;;;;;;;1.77;79.33;100637.77;226506;1269;25433;-80
2024/01/29 18:36:29;;;;;;;46.70;25.50;;;;;;;1.67;79.31;100637.64;226206;1260;22557;-79
2024/01/29 18:41:32;;;;;;;40.50;24.00;;;;;;;1.59;79.53;100641.26;226443;1271;22646;-79
2024/01/29 18:46:34;;;;;;;49.80;25.80;;;;;;;1.53;79.69;100636.38;226408;1273;22550;-79
2024/01/29 18:51:41;;;;;;;46.10;26.50;;;;;;;1.48;80.04;100639.42;226446;1256;22542;-79
2024/01/29 18:56:43;;;;;;;50.80;27.40;;;;;;;1.45;80.16;100641.88;226293;1271;22577;-80
2024/01/29 19:01:45;;;;;;;48.40;27.00;;;;;;;1.42;80.04;100642.00;226457;1273;22566;-79
2024/01/29 19:06:49;;;;;;;45.40;25.30;;;;;;;1.41;80.15;100648.46;226514;1271;22539;-79
2024/01/29 19:11:52;;;;;;;36.30;21.00;;;;;;;1.40;80.40;100646.27;226261;1274;22980;-79
2024/01/29 19:16:55;;;;;;;39.90;23.30;;;;;;;1.41;80.45;100655.25;226357;1274;22603;-79
2024/01/29 19:21:57;;;;;;;39.20;25.20;;;;;;;1.41;80.57;100656.48;226369;1272;25303;-80
2024/01/29 19:26:59;;;;;;;39.40;22.10;;;;;;;1.38;80.52;100660.28;226421;1268;22542;-78
2024/01/29 19:32:01;;;;;;;35.00;21.00;;;;;;;1.34;80.61;100657.51;226349;1273;22650;-79
2024/01/29 19:37:04;;;;;;;34.60;19.70;;;;;;;1.32;80.66;100660.76;226317;1251;22550;-79
2024/01/29 19:42:07;;;;;;;29.80;18.40;;;;;;;1.30;80.69;100657.09;226654;1274;22543;-80
2024/01/29 19:47:09;;;;;;;39.10;20.80;;;;;;;1.27;80.66;100655.31;226268;1273;22556;-80
2024/01/29 19:52:14;;;;;;;41.00;21.90;;;;;;;1.24;80.80;100650.80;226323;1253;22551;-80
2024/01/29 19:57:16;;;;;;;33.60;20.20;;;;;;;1.22;80.79;100646.55;226328;1268;22542;-80
2024/01/29 20:02:19;;;;;;;37.00;21.20;;;;;;;1.21;80.86;100647.66;226387;1274;22543;-80
2024/01/29 20:07:21;;;;;;;43.20;23.00;;;;;;;1.19;80.94;100645.55;226338;1273;22539;-80
2024/01/29 20:12:23;;;;;;;35.10;21.30;;;;;;;1.16;80.92;100651.58;226376;1272;22551;-81
2024/01/29 20:17:26;;;;;;;34.30;20.80;;;;;;;1.12;81.02;100651.10;226423;1271;22624;-80
2024/01/29 20:22:30;;;;;;;37.10;20.40;;;;;;;1.10;81.11;100649.85;226393;1272;22542;-80
2024/01/29 20:27:32;;;;;;;33.70;20.80;;;;;;;1.08;80.96;100648.20;226297;1274;22544;-79
2024/01/29 20:32:37;;;;;;;32.00;20.60;;;;;;;1.04;80.92;100648.38;226420;1270;24403;-79
2024/01/29 20:37:40;;;;;;;29.00;18.40;;;;;;;1.00;80.94;100648.95;226796;1274;22542;-80
2024/01/29 20:42:42;;;;;;;34.40;18.80;;;;;;;0.99;81.10;100638.59;226157;1273;276080;-80
2024/01/29 20:47:44;;;;;;;33.90;18.60;;;;;;;1.00;81.12;100639.80;226325;1272;22540;-79
2024/01/29 20:52:48;;;;;;;30.60;17.50;;;;;;;1.01;81.09;100632.94;226350;1272;25311;-80
2024/01/29 20:57:50;;;;;;;32.10;18.80;;;;;;;1.01;81.00;100631.55;226406;1273;22566;-79
2024/01/29 21:02:52;;;;;;;28.80;17.00;;;;;;;0.99;80.79;100637.20;226257;1274;22539;-79
2024/01/29 21:07:55;;;;;;;26.60;16.40;;;;;;;0.98;80.77;100634.52;226481;1270;22582;-79
2024/01/29 21:12:57;;;;;;;25.00;12.60;;;;;;;0.98;80.91;100630.86;226254;1274;22561;-79
2024/01/29 21:17:59;;;;;;;25.80;14.70;;;;;;;0.98;80.71;100620.61;226511;1272;22542;-80
2024/01/29 21:23:01;;;;;;;29.10;16.00;;;;;;;0.98;80.80;100617.67;226376;1272;22580;-79
2024/01/29 21:28:04;;;;;;;25.20;15.60;;;;;;;0.94;80.44;100615.96;226386;1274;25154;-78
2024/01/29 21:33:06;;;;;;;31.50;17.90;;;;;;;0.89;80.54;100621.46;226425;1269;22544;-79
2024/01/29 21:38:11;;;;;;;33.00;17.70;;;;;;;0.84;80.42;100621.04;226280;1274;24313;-80
2024/01/29 21:43:13;;;;;;;32.70;18.00;;;;;;;0.81;80.40;100624.85;226535;1252;22550;-79
2024/01/29 21:48:15;;;;;;;32.50;17.50;;;;;;;0.77;80.48;100623.31;226516;1273;25264;-79
2024/01/29 21:53:17;;;;;;;30.60;17.30;;;;;;;0.73;80.53;100623.00;226562;1271;22561;-79
2024/01/29 21:58:22;;;;;;;31.00;17.00;;;;;;;0.72;80.46;100621.54;226491;1274;22554;-79
2024/01/29 22:03:24;;;;;;;29.70;17.20;;;;;;;0.71;80.61;100622.93;226368;1268;22542;-79
2024/01/29 22:08:31;;;;;;;30.00;17.80;;;;;;;0.72;80.58;100627.58;226494;1274;22654;-79
2024/01/29 22:13:34;;;;;;;30.00;15.30;;;;;;;0.74;80.59;100625.92;226374;1272;23057;-79
2024/01/29 22:18:36;;;;;;;31.20;16.30;;;;;;;0.74;80.49;100625.20;226404;1274;22549;-80
2024/01/29 22:23:38;;;;;;;26.70;16.10;;;;;;;0.71;80.51;100628.16;226386;1274;22569;-78
2024/01/29 22:28:40;;;;;;;31.00;17.00;;;;;;;0.69;80.56;100626.87;226465;1272;24932;-79
2024/01/29 22:33:42;;;;;;;29.30;15.90;;;;;;;0.68;80.69;100631.42;226449;1274;22542;-79
2024/01/29 22:38:45;;;;;;;26.60;15.90;;;;;;;0.64;80.76;100621.03;226294;1274;22545;-80
2024/01/29 22:43:49;;;;;;;28.90;15.70;;;;;;;0.62;80.89;100626.16;226540;1274;22576;-79
2024/01/29 22:48:53;;;;;;;27.70;15.60;;;;;;;0.60;80.61;100627.13;226533;1271;22553;-79